• Join FlightAware (Why Join?)
  • Login
  • US Flag 
07:08PM EDT


 

Airport Tracker/Info


-or-


 

Live Flight TrackerFlight Track Log ✈ TGW246 ✈ 22-Jul-2013 ✈ YSSY / SYD - YBCG / OOL

Flight Track Log - Related Links

Times and Time Zones

All times are in EDT time to prevent confusion due to time zone crossing. See the TGW246 flight status page for this flight to view local times or setup timezone preferences in your user account.

Time Position Orientation Groundspeed Altitude Reporting Facility
EDT Latitude Longitude Course Direction KTS MPH feet Rate Location/Type
03:31AM -33.9360 151.1780 182° South 1 1  Level FlightAware
03:35AM -33.9370 151.1780 180° South 7 8 60 Level FlightAware
03:35AM -33.9400 151.1780 180° South 15 17 60 Level FlightAware
03:36AM -33.9420 151.1790 157° South 19 22 60 Level FlightAware
03:36AM -33.9440 151.1790 180° South 14 16 60 Level FlightAware
03:37AM -33.9450 151.1790 180° South 12 14 60 Level FlightAware
03:37AM -33.9470 151.1790 180° South 16 18 60 Level FlightAware
03:38AM -33.9490 151.1800 157° South 21 24 60 Level FlightAware
03:38AM -33.9510 151.1810 157° South 13 15 60 Level FlightAware
03:38AM -33.9510 151.1830 90° East 16 18 60 Level FlightAware
03:39AM -33.9500 151.1840 40° Northeast 18 21 60 Level FlightAware
03:39AM -33.9520 151.1860 140° Southeast 17 20 60 Level FlightAware
03:39AM -33.9520 151.1870 90° East 16 18 120 Level FlightAware
03:40AM -33.9530 151.1870 180° South 17 20 120 Level FlightAware
03:40AM -33.9550 151.1880 157° South 20 23 120 Level FlightAware
03:40AM -33.9580 151.1880 180° South 24 28 120 Level FlightAware
03:41AM -33.9610 151.1890 165° South 20 23 120 Level FlightAware
03:41AM -33.9640 151.1900 165° South 25 29 120 Level FlightAware
03:42AM -33.9670 151.1910 165° South 16 18 120 Level FlightAware
03:42AM -33.9690 151.1910 180° South 13 15 180 Level FlightAware
03:43AM -33.9700 151.1910 180° South 15 17 180 Level FlightAware
03:43AM -33.9710 151.1910 180° South 10 12 180 Level FlightAware
03:43AM -33.9710 151.1920 90° East 10 12 240 Level FlightAware
03:43AM -33.9710 151.1930 90° East 240 Level FlightAware
03:46AM -33.7673 151.2795 50° Northeast  Level Estimated
03:46AM -33.9670 151.1930 62° Northeast 86 99  Level FlightAware
03:47AM -33.7184 151.3906 62° Northeast  Level FlightAware Approximate
03:47AM -33.9600 151.1910 347° North 135 155  Level FlightAware
03:47AM -33.9430 151.1870 349° North 149 171 1,000 2,700 Climbing FlightAware
03:47AM -33.9360 151.1880 North 151 174 1,600 3,120 Climbing FlightAware
03:47AM -33.9260 151.1920 18° North 147 169 2,300 2,220 Climbing FlightAware
03:48AM -33.9170 151.1990 33° Northeast 157 181 2,700 1,500 Climbing FlightAware
03:48AM -33.9010 151.2140 38° Northeast 184 212 3,300 1,140 Climbing FlightAware
03:49AM -33.8780 151.2350 37° Northeast 224 258 3,800 1,080 Climbing FlightAware
03:49AM -33.8660 151.2460 37° Northeast 246 283 4,100 960 Climbing FlightAware
03:49AM -33.8450 151.2640 35° Northeast 264 304 4,400 780 Climbing FlightAware
03:49AM -33.8300 151.2800 42° Northeast 280 322 4,600 960 Climbing FlightAware
03:50AM -33.8210 151.3060 67° East 286 329 4,900 420 Climbing FlightAware
03:50AM -33.8110 151.3430 72° East 287 330 4,900 180 Level FlightAware
03:51AM -33.7980 151.3790 67° East 281 323 5,100 1,200 Climbing FlightAware
03:51AM -33.7860 151.3950 48° Northeast 284 327 5,700 3,180 Climbing FlightAware
03:51AM -33.7680 151.4100 35° Northeast 276 318 6,700 2,760 Climbing FlightAware
03:51AM -33.7390 151.4220 19° North 290 334 7,700 3,120 Climbing FlightAware
03:52AM -33.6970 151.4380 18° North 297 342 9,400 3,060 Climbing FlightAware
03:52AM -33.6521 151.4562 18° North 311 358 10,900 2,100 Climbing Aus ATC (RADAR)
03:53AM -33.6500 151.4570 18° North 323 372 10,800 1,920 Descending FlightAware
03:53AM -33.5740 151.4880 19° North 359 413 12,600 2,520 Climbing FlightAware
03:54AM -33.5080 151.5140 18° North 363 418 14,600 2,640 Climbing FlightAware
03:55AM -33.4450 151.5400 18° North 372 428 16,200 2,580 Climbing FlightAware
03:55AM -33.4393 151.5416 18° North 370 426 16,400 2,760 Climbing Aus ATC (RADAR)
03:55AM -33.3790 151.5660 18° North 370 426 18,100 2,460 Climbing FlightAware
03:56AM -33.3050 151.5960 19° North 374 430 19,900 2,160 Climbing FlightAware
03:57AM -33.2370 151.6230 18° North 386 444 21,200 1,860 Climbing FlightAware
03:58AM -33.1560 151.6560 19° North 391 450 22,700 1,800 Climbing FlightAware
03:58AM -33.0970 151.6790 18° North 395 455 23,700 2,340 Climbing FlightAware
03:59AM -33.0272 151.7072 18° North 390 449 25,600 2,520 Climbing Aus ATC (RADAR)
03:59AM -33.0270 151.7070 18° North 384 442 25,500 1,200 Descending FlightAware
03:59AM -32.9678 151.7305 18° North 387 445 26,300 1,200 Climbing Aus ATC (RADAR)
04:00AM -32.9350 151.7430 18° North 396 456 26,600 1,080 Climbing FlightAware
04:00AM -32.8650 151.7710 19° North 401 461 27,400 1,680 Climbing FlightAware
04:01AM -32.8020 151.7966 19° North 396 456 28,700 1,680 Climbing Aus ATC (RADAR)
04:01AM -32.7970 151.7990 19° North 399 459 28,500 300 Descending FlightAware
04:02AM -32.7399 151.8226 19° North 406 467 28,900 660 Climbing Aus ATC (RADAR)
04:02AM -32.7220 151.8310 19° North 419 482 29,000 1,320 Climbing FlightAware
04:02AM -32.6577 151.8598 19° North 420 483 29,900 1,140 Climbing Aus ATC (RADAR)
04:02AM -32.6450 151.8660 19° North 424 488 29,800 840 Descending FlightAware
04:03AM -32.5680 151.9000 20° North 429 494 30,600 1,380 Climbing FlightAware
04:04AM -32.5096 151.9257 20° North 427 491 31,500 1,260 Climbing Aus ATC (RADAR)
04:04AM -32.4900 151.9340 20° North 430 495 31,500 780 Level FlightAware
04:05AM -32.4120 151.9680 20° North 434 499 32,200 1,260 Climbing FlightAware
04:05AM -32.3480 151.9970 21° North 427 491 33,100 1,260 Climbing FlightAware
04:06AM -32.2650 152.0330 20° North 422 486 33,900 1,140 Climbing FlightAware
04:07AM -32.1858 152.0679 20° North 416 479 34,800 900 Climbing Aus ATC (RADAR)
04:07AM -32.1890 152.0660 20° North 418 481 34,600 480 Descending FlightAware
04:07AM -32.1040 152.1038 20° North 419 482 35,200 660 Climbing Aus ATC (RADAR)
04:07AM -32.1030 152.1040 20° North 420 483 35,100 480 Descending FlightAware
04:08AM -32.0430 152.1300 20° North 420 483 35,500 1,020 Climbing FlightAware
04:08AM -32.0406 152.1312 20° North 417 480 35,700 960 Climbing Aus ATC (RADAR)
04:08AM -31.9767 152.1590 20° North 417 480 36,100 420 Climbing Aus ATC (RADAR)
04:09AM -31.9710 152.1610 20° North 419 482 36,000 420 Descending FlightAware
04:09AM -31.9011 152.1915 20° North 418 481 36,400 420 Climbing Aus ATC (RADAR)
04:09AM -31.8930 152.1950 20° North 425 489 36,300 600 Descending FlightAware
04:10AM -31.8050 152.2340 21° North 423 487 37,000 420 Climbing FlightAware
04:11AM -31.7290 152.2670 20° North 420 483 37,000  Level FlightAware
04:11AM -31.6560 152.2980 20° North 423 487 37,000  Level FlightAware
04:12AM -31.5690 152.3350 20° North 424 488 37,000  Level FlightAware
04:13AM -31.5030 152.3640 20° North 425 489 37,000 300 Level FlightAware
04:13AM -31.4990 152.3654 20° North 419 482 37,200 300 Climbing Aus ATC (RADAR)
04:13AM -31.4228 152.3983 20° North 424 488 37,200 -300 Level Aus ATC (RADAR)
04:14AM -31.4200 152.3990 20° North 427 491 37,000  Descending FlightAware
04:14AM -31.3601 152.4254 20° North 424 488 37,200  Climbing Aus ATC (RADAR)
04:14AM -31.3390 152.4340 20° North 429 494 37,000 -240 Descending FlightAware
04:15AM -31.2560 152.4700 20° North 429 494 37,000  Level FlightAware
04:16AM -31.1930 152.4970 20° North 427 491 37,000  Level FlightAware
04:16AM -31.1040 152.5350 20° North 423 487 37,000 240 Level FlightAware
04:16AM -31.0993 152.5366 20° North 421 484 37,200  Climbing Aus ATC (RADAR)
04:17AM -31.0470 152.5590 20° North 423 487 37,000 -180 Descending FlightAware
04:18AM -30.9570 152.5980 20° North 424 488 37,000  Level FlightAware
04:18AM -30.8970 152.6230 20° North 424 488 37,000  Level FlightAware
04:19AM -30.8270 152.6530 20° North 424 488 37,000 120 Level FlightAware
04:20AM -30.7398 152.6890 20° North 419 482 37,200  Climbing Aus ATC (RADAR)
04:20AM -30.7290 152.6940 20° North 424 488 37,000 -240 Descending FlightAware
04:21AM -30.6730 152.7180 20° North 424 488 37,000  Level FlightAware
04:21AM -30.5600 152.7650 20° North 424 488 37,000  Level FlightAware
04:22AM -30.4820 152.7980 20° North 425 489 37,000  Level FlightAware
04:23AM -30.4070 152.8290 20° North 426 490 37,000  Level FlightAware
04:23AM -30.3270 152.8630 20° North 425 489 37,000 120 Level FlightAware
04:24AM -30.2510 152.8943 20° North 420 483 37,200 -180 Climbing Aus ATC (RADAR)
04:24AM -30.2490 152.8960 20° North 425 489 36,900 -1,080 Descending FlightAware
04:25AM -30.1864 152.9211 20° North 416 479 36,600 -1,200 Descending Aus ATC (RADAR)
04:25AM -30.1770 152.9260 20° North 420 483 36,100 -2,040 Descending FlightAware
04:25AM -30.1045 152.9542 20° North 409 471 35,100 -1,920 Descending Aus ATC (RADAR)
04:25AM -30.0950 152.9600 20° North 414 476 34,700 -1,920 Descending FlightAware
04:26AM -30.0422 152.9811 20° North 403 464 34,000 -1,800 Descending Aus ATC (RADAR)
04:26AM -30.0250 152.9900 20° North 407 468 33,500 -2,160 Descending FlightAware
04:27AM -29.9540 153.0190 19° North 401 461 32,200 -1,740 Descending FlightAware
04:27AM -29.9037 153.0410 19° North 389 448 31,500 -2,040 Descending Aus ATC (RADAR)
04:28AM -29.8750 153.0520 19° North 393 452 30,700 -2,220 Descending FlightAware
04:28AM -29.8070 153.0800 19° North 389 448 29,500 -1,620 Descending FlightAware
04:28AM -29.8006 153.0823 19° North 383 441 29,500 -1,920 Level Aus ATC (RADAR)
04:29AM -29.7350 153.1100 20° North 382 440 28,100 -1,920 Descending FlightAware
04:30AM -29.6682 153.1387 20° North 371 427 27,000 -2,100 Descending Aus ATC (RADAR)
04:30AM -29.6660 153.1380 20° North 378 435 26,700 -2,280 Descending FlightAware
04:30AM -29.5920 153.1690 20° North 372 428 25,300 -1,980 Descending FlightAware
04:31AM -29.5200 153.1980 19° North 367 422 23,800 -1,920 Descending FlightAware
04:32AM -29.4570 153.2240 20° North 362 417 22,600 -1,800 Descending FlightAware
04:32AM -29.3930 153.2500 19° North 356 410 21,400 -1,800 Descending FlightAware
04:33AM -29.3250 153.2780 20° North 349 402 20,100 -1,740 Descending FlightAware
04:34AM -29.2750 153.2990 20° North 344 396 19,100 -2,100 Descending FlightAware
04:35AM -29.1964 153.3302 20° North 344 396 17,200  Descending Aus ATC (RADAR)
04:35AM -29.2110 153.3240 20° North 344 396 19,100 -2,100 Climbing FlightAware
04:35AM -29.1422 153.3539 20° North 356 410 16,000  Descending Aus ATC (RADAR)
04:35AM -29.1650 153.3420 20° North 344 396 19,100 -1,740 Climbing FlightAware
04:36AM -29.0740 153.3821 20° North 348 400 14,700 -6,420 Descending Aus ATC (RADAR)
04:36AM -29.0730 153.3820 20° North 342 394 14,400 -2,040 Descending FlightAware
04:37AM -29.0160 153.4050 19° North 333 383 13,300 -1,680 Descending FlightAware
04:37AM -28.9500 153.4320 20° North 327 376 12,100 -1,800 Descending FlightAware
04:38AM -28.8940 153.4540 19° North 330 380 10,800 -1,260 Descending FlightAware
04:39AM -28.8440 153.4747 19° North 322 371 10,600 -780 Descending Aus ATC (RADAR)
04:39AM -28.8360 153.4780 19° North 307 353 10,300 -1,500 Descending FlightAware
04:39AM -28.7980 153.4930 19° North 298 343 9,700 -960 Descending FlightAware
04:39AM -28.7913 153.4960 19° North 303 349 9,800 -1,140 Climbing Aus ATC (RADAR)
04:39AM -28.7850 153.4990 19° North 293 337 9,500 -540 Descending FlightAware
04:40AM -28.7467 153.5141 19° North 294 338 9,500 -480 Level Aus ATC (RADAR)
04:41AM -28.6975 153.5345 20° North 281 323 9,000 -540 Descending Aus ATC (RADAR)
04:41AM -28.6506 153.5531 19° North 271 312 8,800 -900 Descending Aus ATC (RADAR)
04:42AM -28.6076 153.5701 19° North 279 321 7,900 -1,500 Descending Aus ATC (RADAR)
04:43AM -28.5524 153.5927 20° North 281 323 6,800 -1,380 Descending Aus ATC (RADAR)
04:44AM -28.4795 153.6108 12° North 267 307 5,500 -1,260 Descending Aus ATC (RADAR)
04:44AM -28.4315 153.6178 North 262 302 4,700 -1,200 Descending Aus ATC (RADAR)
04:45AM -28.3900 153.6245 North 258 297 4,000 -1,320 Descending Aus ATC (RADAR)
04:45AM -28.3498 153.6306 North 250 288 3,200 -960 Descending Aus ATC (RADAR)
04:46AM -28.2928 153.6129 345° North 221 254 2,500 -720 Descending Aus ATC (RADAR)
04:47AM -28.2560 153.5810 345° North 182 209 1,900 -780 Descending FlightAware
04:48AM -28.2410 153.5680 323° Northwest 163 188 1,500 -900 Descending FlightAware
04:48AM -28.2240 153.5530 322° Northwest 134 154 1,100 -660 Descending FlightAware
04:49AM -28.2119 153.5360 322° Northwest 130 150 900 -720 Descending Aus ATC (RADAR)
04:49AM -28.2100 153.5350 322° Northwest 128 147 700 -480 Descending FlightAware
04:49AM -28.1960 153.5230 323° Northwest 128 147 600 -180 Descending FlightAware
04:53AM -28.1644 153.5048 North  Level FlightAware Approximate
04:54AM -28.1644 153.5047 North  Level Estimated
04:55AM -28.1644 153.5047 North  Level Estimated
04:56AM -28.1644 153.5047 North  Level Estimated